Time;durP1;ratioP1;P1;durP2;ratioP2;P2;SDS_P1;SDS_P2;PMS_P1;PMS_P2;Temp;Humidity;BMP_temperature;BMP_pressure;BME280_temperature;BME280_humidity;BME280_pressure;Samples;Min_cycle;Max_cycle;Signal;HPM_P1;HPM_P2
2023/05/30 00:01:10;;;;;;;5.95;3.60;;;17.20;1.00;;;;;;7368329;19;20086;-69
2023/05/30 00:03:40;;;;;;;7.05;3.33;;;17.10;1.00;;;;;;7366475;19;20015;-69
2023/05/30 00:06:10;;;;;;;7.10;3.75;;;17.00;1.00;;;;;;7368211;19;20106;-68
2023/05/30 00:08:41;;;;;;;6.32;3.67;;;17.00;1.00;;;;;;7367266;19;20014;-69
2023/05/30 00:11:14;;;;;;;6.30;3.58;;;16.90;1.00;;;;;;7385648;19;20015;-69
2023/05/30 00:13:45;;;;;;;6.57;3.70;;;16.90;1.00;;;;;;7366431;19;20014;-69
2023/05/30 00:16:15;;;;;;;8.80;3.53;;;16.90;1.00;;;;;;7365483;19;20011;-69
2023/05/30 00:18:45;;;;;;;6.10;3.60;;;16.90;1.00;;;;;;7367517;19;20048;-69
2023/05/30 00:21:17;;;;;;;6.47;3.78;;;16.80;1.00;;;;;;7365022;19;20048;-69
2023/05/30 00:23:48;;;;;;;8.60;3.30;;;16.80;1.00;;;;;;7366306;19;20018;-69
2023/05/30 00:26:21;;;;;;;6.40;3.38;;;16.80;1.00;;;;;;7390594;19;20081;-69
2023/05/30 00:28:51;;;;;;;5.47;3.58;;;16.80;1.00;;;;;;7366896;19;20017;-69
2023/05/30 00:31:21;;;;;;;6.63;3.35;;;16.80;1.00;;;;;;7365518;19;20014;-68
2023/05/30 00:33:51;;;;;;;4.60;3.10;;;16.70;1.00;;;;;;7366127;19;20018;-69
2023/05/30 00:36:21;;;;;;;5.13;3.42;;;16.60;1.00;;;;;;7367037;19;20038;-68
2023/05/30 00:38:51;;;;;;;5.15;3.20;;;16.60;1.00;;;;;;7368131;19;20045;-69
2023/05/30 00:41:24;;;;;;;5.70;3.33;;;16.50;1.00;;;;;;7389406;19;20355;-69
2023/05/30 00:43:54;;;;;;;5.95;3.63;;;16.40;1.00;;;;;;7369310;19;20036;-69
2023/05/30 00:46:29;;;;;;;4.95;3.35;;;16.30;1.00;;;;;;7366040;19;20025;-68
2023/05/30 00:49:01;;;;;;;4.75;3.10;;;16.40;1.00;;;;;;7366645;19;20011;-69
2023/05/30 00:51:32;;;;;;;5.97;3.33;;;16.30;1.00;;;;;;7366033;19;20018;-69
2023/05/30 00:54:04;;;;;;;6.25;3.42;;;16.20;1.00;;;;;;7364857;19;20018;-69
2023/05/30 00:56:37;;;;;;;6.78;3.22;;;16.20;1.00;;;;;;7388475;19;20010;-69
2023/05/30 00:59:07;;;;;;;6.03;3.70;;;16.10;1.00;;;;;;7365283;19;20660;-69
2023/05/30 01:01:38;;;;;;;5.65;3.83;;;16.10;1.00;;;;;;7321479;19;20064;-69
2023/05/30 01:04:08;;;;;;;7.38;3.53;;;16.00;1.00;;;;;;7365564;19;20015;-69
2023/05/30 01:06:40;;;;;;;5.72;3.50;;;16.00;1.00;;;;;;7366781;19;20038;-69
2023/05/30 01:09:10;;;;;;;4.10;3.25;;;15.90;1.00;;;;;;7364397;19;20018;-68
2023/05/30 01:11:56;;;;;;;6.95;3.80;;;15.80;1.00;;;;;;7387226;19;20014;-68
2023/05/30 01:14:32;;;;;;;7.25;4.03;;;15.80;1.00;;;;;;7364659;19;20021;-68
2023/05/30 01:17:09;;;;;;;6.75;3.78;;;15.70;1.00;;;;;;7363547;19;20520;-68
2023/05/30 01:19:58;;;;;;;8.43;3.67;;;15.60;1.00;;;;;;7364103;19;20010;-69
2023/05/30 01:22:39;;;;;;;5.90;4.13;;;15.60;1.00;;;;;;7365588;19;20034;-68
2023/05/30 01:25:24;;;;;;;6.78;3.97;;;15.50;1.00;;;;;;7364548;19;20054;-69
2023/05/30 01:28:12;;;;;;;8.00;3.53;;;15.50;1.00;;;;;;7368085;19;20017;-68
2023/05/30 01:30:47;;;;;;;7.65;3.83;;;15.50;1.00;;;;;;7366572;19;20022;-69
2023/05/30 01:33:19;;;;;;;6.57;3.53;;;15.50;1.00;;;;;;7364094;19;20034;-69
2023/05/30 01:35:50;;;;;;;5.18;3.92;;;15.50;1.00;;;;;;7367571;19;20010;-69
2023/05/30 01:38:20;;;;;;;6.93;3.97;;;15.40;1.00;;;;;;7388526;19;20027;-69
2023/05/30 01:40:52;;;;;;;7.72;4.18;;;15.40;1.00;;;;;;7364672;19;20042;-68
2023/05/30 01:43:40;;;;;;;8.43;4.07;;;15.40;1.00;;;;;;7311477;19;20471;-69
2023/05/30 01:46:19;;;;;;;5.75;3.88;;;15.30;1.00;;;;;;7390677;19;20022;-69
2023/05/30 01:48:57;;;;;;;5.50;3.17;;;15.30;1.00;;;;;;7363024;19;20018;-69
2023/05/30 01:51:32;;;;;;;5.53;3.63;;;15.30;1.00;;;;;;7363824;19;20014;-68
2023/05/30 01:54:04;;;;;;;;;;;15.20;1.00;;;;;;7364211;19;20048;-69
2023/05/30 01:56:36;;;;;;;7.10;4.35;;;15.20;1.00;;;;;;7387456;19;20358;-68
2023/05/30 01:59:11;;;;;;;8.45;3.95;;;15.20;1.00;;;;;;7362919;19;20014;-68
2023/05/30 02:01:43;;;;;;;9.77;4.18;;;15.10;1.00;;;;;;7366157;19;20042;-69
2023/05/30 02:04:13;;;;;;;4.80;3.65;;;15.10;1.00;;;;;;7365329;19;20415;-68
2023/05/30 02:06:43;;;;;;;7.97;4.07;;;15.10;1.00;;;;;;7363632;19;20018;-68
2023/05/30 02:09:13;;;;;;;5.60;3.72;;;15.10;1.00;;;;;;7364498;19;20014;-68
2023/05/30 02:11:43;;;;;;;9.05;4.30;;;15.00;1.00;;;;;;7364296;19;20018;-69
2023/05/30 02:14:15;;;;;;;8.40;4.70;;;14.80;1.00;;;;;;7387697;19;20019;-69
2023/05/30 02:16:45;;;;;;;8.45;4.50;;;14.80;1.00;;;;;;7363215;19;20014;-69
2023/05/30 02:19:15;;;;;;;7.45;3.83;;;14.80;1.00;;;;;;7361923;19;20473;-68
2023/05/30 02:21:45;;;;;;;8.05;4.05;;;14.70;1.00;;;;;;7365064;19;20502;-69
2023/05/30 02:24:16;;;;;;;8.98;4.40;;;14.80;1.00;;;;;;7362450;19;20044;-69
2023/05/30 02:26:45;;;;;;;6.85;4.15;;;14.90;1.00;;;;;;7365145;19;20042;-69
2023/05/30 02:29:18;;;;;;;5.53;3.88;;;14.70;1.00;;;;;;7385526;19;20039;-68
2023/05/30 02:31:48;;;;;;;5.90;4.22;;;14.70;1.00;;;;;;7361941;19;20505;-68
2023/05/30 02:34:18;;;;;;;7.43;4.93;;;14.60;1.00;;;;;;7361909;19;20011;-69
2023/05/30 02:36:48;;;;;;;8.10;4.07;;;14.60;1.00;;;;;;7362294;19;20010;-68
2023/05/30 02:39:18;;;;;;;8.20;3.97;;;14.60;1.00;;;;;;7363635;19;20085;-68
2023/05/30 02:41:48;;;;;;;8.75;3.85;;;14.60;1.00;;;;;;7362032;19;20652;-69
2023/05/30 02:44:20;;;;;;;8.20;4.60;;;14.50;1.00;;;;;;7383511;19;20019;-68
2023/05/30 02:46:50;;;;;;;7.85;4.18;;;14.40;1.00;;;;;;7362342;19;20515;-68
2023/05/30 02:49:21;;;;;;;7.35;4.38;;;14.40;1.00;;;;;;7361754;19;20082;-69
2023/05/30 02:51:51;;;;;;;8.38;4.43;;;14.30;1.00;;;;;;7361726;19;20479;-68
2023/05/30 02:54:23;;;;;;;9.20;4.38;;;14.30;1.00;;;;;;7362014;19;20085;-68
2023/05/30 02:56:53;;;;;;;7.32;4.30;;;14.40;1.00;;;;;;7363987;19;20471;-69
2023/05/30 02:59:25;;;;;;;8.45;4.40;;;14.40;1.00;;;;;;7382797;19;20014;-69
2023/05/30 03:01:55;;;;;;;5.88;4.28;;;14.30;1.00;;;;;;7361317;19;20031;-68
2023/05/30 03:04:25;;;;;;;7.07;4.50;;;14.30;1.00;;;;;;7360971;19;20018;-68
2023/05/30 03:06:55;;;;;;;8.50;4.57;;;14.30;1.00;;;;;;7362353;19;20502;-68
2023/05/30 03:09:26;;;;;;;9.88;4.85;;;14.20;1.00;;;;;;7361433;19;20014;-69
2023/05/30 03:11:56;;;;;;;10.05;4.30;;;14.20;1.00;;;;;;7361618;19;20021;-68
2023/05/30 03:14:28;;;;;;;8.63;4.50;;;14.10;1.00;;;;;;7385919;19;20048;-69
2023/05/30 03:16:59;;;;;;;8.98;4.20;;;14.20;1.00;;;;;;7360886;19;20014;-68
2023/05/30 03:19:28;;;;;;;9.77;5.22;;;14.20;1.00;;;;;;7360196;19;20025;-68
2023/05/30 03:21:59;;;;;;;8.30;4.55;;;14.10;1.00;;;;;;7360983;19;20017;-69
2023/05/30 03:24:29;;;;;;;6.90;4.35;;;14.10;1.00;;;;;;7361058;19;20010;-69
2023/05/30 03:26:59;;;;;;;8.55;4.50;;;14.00;1.00;;;;;;7363045;19;20125;-68
2023/05/30 03:29:32;;;;;;;8.50;4.80;;;14.00;1.00;;;;;;7384321;19;20086;-68
2023/05/30 03:32:02;;;;;;;8.68;4.28;;;14.00;1.00;;;;;;7360497;19;20019;-69
2023/05/30 03:34:33;;;;;;;6.60;4.32;;;13.90;1.00;;;;;;7360505;19;20501;-68
2023/05/30 03:37:03;;;;;;;7.65;4.47;;;13.90;1.00;;;;;;7360607;19;20788;-68
2023/05/30 03:39:33;;;;;;;9.73;4.05;;;13.90;1.00;;;;;;7360309;19;20015;-68
2023/05/30 03:42:04;;;;;;;5.60;4.53;;;14.00;1.00;;;;;;7360605;19;20106;-68
2023/05/30 03:44:36;;;;;;;7.40;4.43;;;14.00;1.00;;;;;;7365385;19;20022;-69
2023/05/30 03:47:07;;;;;;;5.15;3.92;;;13.90;1.00;;;;;;7383004;19;20011;-68
2023/05/30 03:49:37;;;;;;;5.68;4.00;;;14.10;1.00;;;;;;7359506;19;20021;-68
2023/05/30 03:52:07;;;;;;;9.13;4.45;;;14.00;1.00;;;;;;7360401;19;20358;-68
2023/05/30 03:54:37;;;;;;;6.72;4.57;;;14.00;1.00;;;;;;7360049;19;20011;-68
2023/05/30 03:57:08;;;;;;;10.63;4.47;;;14.00;1.00;;;;;;7361652;19;20025;-68
2023/05/30 03:59:40;;;;;;;6.90;4.00;;;14.00;1.00;;;;;;7359605;19;20014;-69
2023/05/30 04:02:10;;;;;;;8.02;4.35;;;14.00;1.00;;;;;;7381560;19;20015;-68
2023/05/30 04:04:40;;;;;;;8.02;4.35;;;14.10;1.00;;;;;;7359182;19;20035;-68
2023/05/30 04:07:10;;;;;;;6.60;4.25;;;14.20;1.00;;;;;;7360236;19;20042;-68
2023/05/30 04:09:40;;;;;;;6.68;4.65;;;14.20;1.00;;;;;;7362146;19;20517;-68
2023/05/30 04:12:11;;;;;;;7.57;4.40;;;14.20;1.00;;;;;;7361704;19;20050;-68
2023/05/30 04:14:44;;;;;;;5.93;4.00;;;14.20;1.00;;;;;;7363229;19;20014;-68
2023/05/30 04:17:14;;;;;;;8.00;4.57;;;14.10;1.00;;;;;;7381240;19;20018;-68
2023/05/30 04:19:44;;;;;;;6.25;4.30;;;14.30;1.00;;;;;;7357977;19;20011;-68
2023/05/30 04:22:14;;;;;;;6.80;4.50;;;14.30;1.00;;;;;;7360081;19;20080;-68
2023/05/30 04:24:45;;;;;;;12.13;4.30;;;14.20;1.00;;;;;;7359082;19;20475;-68
2023/05/30 04:27:17;;;;;;;7.47;4.18;;;14.30;1.00;;;;;;7361066;19;20541;-68
2023/05/30 04:29:50;;;;;;;8.07;4.30;;;14.40;1.00;;;;;;7361509;19;20031;-68
2023/05/30 04:32:20;;;;;;;7.50;4.30;;;14.50;1.00;;;;;;7388026;19;20034;-68
2023/05/30 04:34:50;;;;;;;7.93;4.05;;;14.50;1.00;;;;;;7365781;19;20038;-68
2023/05/30 04:37:21;;;;;;;7.15;4.25;;;14.50;1.00;;;;;;7365889;19;20605;-68
2023/05/30 04:39:51;;;;;;;7.28;4.43;;;14.80;1.00;;;;;;7363567;19;20721;-68
2023/05/30 04:42:20;;;;;;;8.05;4.25;;;15.10;1.00;;;;;;7366823;19;20427;-68
2023/05/30 04:44:53;;;;;;;7.80;4.40;;;15.40;1.00;;;;;;7365652;19;20803;-68
2023/05/30 04:47:24;;;;;;;8.40;4.47;;;15.50;1.00;;;;;;7387547;19;20019;-68
2023/05/30 04:50:00;;;;;;;10.50;5.75;;;15.40;1.00;;;;;;7364046;19;20015;-68
2023/05/30 04:52:30;;;;;;;8.15;4.20;;;15.50;1.00;;;;;;7365239;19;20022;-68
2023/05/30 04:55:00;;;;;;;8.10;4.15;;;15.40;1.00;;;;;;7365269;19;20366;-68
2023/05/30 04:57:31;;;;;;;9.52;4.50;;;15.20;1.00;;;;;;7367079;19;20018;-68
2023/05/30 05:00:04;;;;;;;7.15;4.55;;;15.20;1.00;;;;;;7364166;19;20373;-69
2023/05/30 05:02:34;;;;;;;7.35;4.35;;;15.50;1.00;;;;;;7372278;19;20021;-68
2023/05/30 05:05:05;;;;;;;10.85;4.20;;;15.50;1.00;;;;;;7387818;19;20035;-68
2023/05/30 05:07:36;;;;;;;10.43;4.28;;;16.00;1.00;;;;;;7368542;19;20011;-68
2023/05/30 05:10:11;;;;;;;7.35;3.95;;;16.20;1.00;;;;;;7362926;19;20014;-68
2023/05/30 05:12:41;;;;;;;6.43;3.97;;;16.10;1.00;;;;;;7367064;19;20478;-68
2023/05/30 05:15:14;;;;;;;8.48;4.20;;;16.30;1.00;;;;;;7364372;19;20483;-68
2023/05/30 05:17:44;;;;;;;10.52;4.25;;;16.10;1.00;;;;;;7365088;19;20074;-69
2023/05/30 05:20:15;;;;;;;5.82;3.80;;;15.80;1.00;;;;;;7384551;19;20018;-68
2023/05/30 05:22:45;;;;;;;5.75;3.78;;;15.70;1.00;;;;;;7364717;19;20014;-68
2023/05/30 05:25:15;;;;;;;8.80;3.85;;;15.90;1.00;;;;;;7363962;19;20604;-68
2023/05/30 05:27:45;;;;;;;7.22;4.00;;;16.10;1.00;;;;;;7366780;19;20039;-69
2023/05/30 05:30:18;;;;;;;5.20;3.67;;;16.10;1.00;;;;;;7365586;19;20038;-69
2023/05/30 05:32:48;;;;;;;6.85;4.03;;;15.90;1.00;;;;;;7365096;19;20014;-68
2023/05/30 05:35:18;;;;;;;6.65;3.97;;;15.80;1.00;;;;;;7385205;19;20015;-68
2023/05/30 05:37:48;;;;;;;9.07;4.45;;;15.70;1.00;;;;;;7364194;19;20074;-68
2023/05/30 05:40:18;;;;;;;8.40;3.67;;;15.60;1.00;;;;;;7360787;19;20030;-68
2023/05/30 05:42:48;;;;;;;6.28;3.72;;;15.40;1.00;;;;;;7364767;19;20082;-68
2023/05/30 05:45:20;;;;;;;8.90;3.97;;;15.50;1.00;;;;;;7363862;19;20448;-68
2023/05/30 05:47:50;;;;;;;9.45;4.25;;;15.60;1.00;;;;;;7363976;19;20006;-68
2023/05/30 05:50:21;;;;;;;5.47;4.13;;;15.60;1.00;;;;;;7383623;19;20022;-68
2023/05/30 05:52:51;;;;;;;8.50;3.88;;;15.40;1.00;;;;;;7363663;19;20419;-67
2023/05/30 05:55:20;;;;;;;12.88;4.55;;;15.40;1.00;;;;;;7365256;19;20014;-68
2023/05/30 05:57:52;;;;;;;9.23;4.03;;;15.50;1.00;;;;;;7366178;19;20010;-69
2023/05/30 06:00:29;;;;;;;11.10;4.13;;;15.30;1.00;;;;;;7362533;19;20511;-69
2023/05/30 06:02:59;;;;;;;6.60;4.07;;;15.40;1.00;;;;;;7366178;19;20071;-68
2023/05/30 06:05:30;;;;;;;7.40;3.78;;;15.70;1.00;;;;;;7384009;19;20025;-68
2023/05/30 06:08:03;;;;;;;9.88;3.70;;;15.60;1.00;;;;;;7362821;19;20486;-68
2023/05/30 06:10:33;;;;;;;6.95;3.60;;;15.60;1.00;;;;;;7361244;19;20025;-68
2023/05/30 06:13:03;;;;;;;7.03;3.55;;;15.60;1.00;;;;;;7362791;19;20016;-67
2023/05/30 06:15:35;;;;;;;5.30;3.33;;;15.90;1.00;;;;;;7362483;19;20015;-67
2023/05/30 06:18:07;;;;;;;9.10;3.85;;;15.70;1.00;;;;;;7362998;19;20046;-68
2023/05/30 06:20:37;;;;;;;7.70;3.83;;;15.80;1.00;;;;;;7360502;19;20500;-69
2023/05/30 06:23:07;;;;;;;5.85;3.15;;;16.10;1.00;;;;;;7384352;19;20014;-69
2023/05/30 06:25:36;;;;;;;6.63;3.38;;;15.90;1.00;;;;;;7362239;19;20097;-69
2023/05/30 06:28:06;;;;;;;5.32;3.50;;;16.40;1.00;;;;;;7362882;19;20031;-69
2023/05/30 06:30:39;;;;;;;7.32;3.10;;;16.40;1.00;;;;;;7363928;19;20018;-69
2023/05/30 06:33:09;;;;;;;5.90;3.25;;;16.50;1.00;;;;;;7362943;19;20507;-69
2023/05/30 06:35:40;;;;;;;7.30;3.45;;;16.50;1.00;;;;;;7361733;19;20014;-68
2023/05/30 06:38:10;;;;;;;6.93;3.30;;;16.10;1.00;;;;;;7383976;19;20034;-68
2023/05/30 06:40:40;;;;;;;7.40;3.10;;;16.20;1.00;;;;;;7359521;19;20014;-68
2023/05/30 06:43:10;;;;;;;7.97;3.40;;;16.30;1.00;;;;;;7362639;19;20011;-68
2023/05/30 06:45:42;;;;;;;5.63;2.95;;;16.70;1.00;;;;;;7362230;19;20014;-68
2023/05/30 06:48:12;;;;;;;6.45;3.38;;;16.80;1.00;;;;;;7361674;19;20082;-68
2023/05/30 06:50:42;;;;;;;7.25;3.00;;;16.70;1.00;;;;;;7360526;19;20014;-68
2023/05/30 06:53:12;;;;;;;6.40;3.17;;;16.60;1.00;;;;;;7381781;19;20017;-68
2023/05/30 06:55:42;;;;;;;7.63;3.58;;;17.00;1.00;;;;;;7360975;19;20048;-68
2023/05/30 06:58:12;;;;;;;8.23;3.92;;;16.90;1.00;;;;;;7364427;19;20018;-68
2023/05/30 07:00:44;;;;;;;7.82;3.40;;;16.80;1.00;;;;;;7363064;19;20524;-69
2023/05/30 07:03:15;;;;;;;4.88;3.00;;;16.50;1.00;;;;;;7363905;19;20034;-69
2023/05/30 07:05:45;;;;;;;6.72;3.00;;;16.90;1.00;;;;;;7360699;19;20042;-69
2023/05/30 07:08:17;;;;;;;7.18;3.17;;;16.70;1.00;;;;;;7382888;19;20019;-68
2023/05/30 07:10:47;;;;;;;6.88;3.03;;;16.80;1.00;;;;;;7357680;19;20053;-68
2023/05/30 07:13:17;;;;;;;5.88;3.08;;;16.80;1.00;;;;;;7362329;19;20010;-68
2023/05/30 07:15:50;;;;;;;9.10;3.55;;;16.80;1.00;;;;;;7361493;19;20015;-68
2023/05/30 07:18:20;;;;;;;7.88;3.38;;;16.80;1.00;;;;;;7360521;19;20627;-68
2023/05/30 07:20:50;;;;;;;5.90;3.15;;;16.80;1.00;;;;;;7359405;19;20018;-68
2023/05/30 07:23:20;;;;;;;6.97;3.10;;;17.10;1.00;;;;;;7382713;19;20019;-69
2023/05/30 07:25:50;;;;;;;7.25;2.83;;;17.00;1.00;;;;;;7360913;19;20014;-69
2023/05/30 07:28:22;;;;;;;8.73;3.30;;;17.20;1.00;;;;;;7359816;19;20018;-69
2023/05/30 07:30:55;;;;;;;6.85;3.30;;;17.10;1.00;;;;;;7361974;19;20010;-68
2023/05/30 07:33:25;;;;;;;7.97;3.10;;;17.40;1.00;;;;;;7360667;19;20090;-68
2023/05/30 07:35:58;;;;;;;8.52;3.50;;;17.70;1.00;;;;;;7360680;19;20059;-69
2023/05/30 07:38:28;;;;;;;7.05;2.88;;;17.80;1.00;;;;;;7381891;19;20018;-69
2023/05/30 07:40:57;;;;;;;7.35;2.90;;;17.60;1.00;;;;;;7358421;19;20019;-68
2023/05/30 07:43:28;;;;;;;7.90;3.17;;;17.70;1.00;;;;;;7360582;19;20015;-68
2023/05/30 07:46:00;;;;;;;5.68;3.00;;;18.10;1.00;;;;;;7361129;19;20818;-68
2023/05/30 07:48:30;;;;;;;6.47;2.88;;;17.40;1.00;;;;;;7361944;19;20006;-67
2023/05/30 07:51:00;;;;;;;8.13;3.15;;;17.60;1.00;;;;;;7360065;19;20033;-68
2023/05/30 07:53:30;;;;;;;9.82;3.50;;;18.30;1.00;;;;;;7383744;19;20483;-69
2023/05/30 07:56:02;;;;;;;7.32;3.45;;;18.20;1.00;;;;;;7364149;19;20021;-68
2023/05/30 07:58:32;;;;;;;8.18;3.55;;;18.60;1.00;;;;;;7359565;19;20101;-68
2023/05/30 08:01:05;;;;;;;6.32;3.38;;;18.40;1.00;;;;;;7363967;19;20387;-68
2023/05/30 08:03:35;;;;;;;7.35;3.28;;;18.70;1.00;;;;;;7372393;19;20478;-69
2023/05/30 08:06:05;;;;;;;10.43;3.58;;;18.20;1.00;;;;;;7376363;19;20010;-68
2023/05/30 08:08:35;;;;;;;8.10;3.28;;;18.60;1.00;;;;;;7376789;19;20465;-68
2023/05/30 08:11:05;;;;;;;6.50;3.47;;;18.80;1.00;;;;;;7387122;19;20019;-67
2023/05/30 08:13:36;;;;;;;6.32;3.28;;;18.30;1.00;;;;;;7367635;19;20011;-69
2023/05/30 08:16:10;;;;;;;8.13;3.30;;;18.70;1.00;;;;;;7367286;19;20014;-68
2023/05/30 08:18:41;;;;;;;;;;;18.70;1.00;;;;;;7367019;19;20529;-69
2023/05/30 08:21:11;;;;;;;6.95;3.38;;;18.80;1.00;;;;;;7364048;19;19938;-68
2023/05/30 08:23:42;;;;;;;6.63;3.38;;;18.80;1.00;;;;;;7365817;19;20471;-68
2023/05/30 08:26:11;;;;;;;5.63;3.20;;;19.00;1.00;;;;;;7387569;19;20031;-69
2023/05/30 08:28:42;;;;;;;8.95;3.40;;;19.70;1.00;;;;;;7364583;19;20018;-68
2023/05/30 08:31:15;;;;;;;9.75;3.72;;;19.60;1.00;;;;;;7367058;19;20014;-68
2023/05/30 08:33:45;;;;;;;7.30;3.00;;;19.40;1.00;;;;;;7365962;19;20389;-68
2023/05/30 08:36:16;;;;;;;7.03;3.53;;;19.40;1.00;;;;;;7366343;19;20019;-67
2023/05/30 08:38:46;;;;;;;8.70;3.53;;;19.60;1.00;;;;;;7365522;19;20014;-68
2023/05/30 08:41:16;;;;;;;6.45;3.33;;;19.40;1.00;;;;;;7384667;19;20433;-68
2023/05/30 08:43:46;;;;;;;5.47;2.53;;;19.70;1.00;;;;;;7364388;19;20829;-67
2023/05/30 08:46:19;;;;;;;7.22;3.70;;;20.40;1.00;;;;;;7366169;19;20013;-68
2023/05/30 08:48:50;;;;;;;6.87;3.60;;;20.30;1.00;;;;;;7366019;19;20015;-68
2023/05/30 08:51:23;;;;;;;8.02;3.28;;;20.60;1.00;;;;;;7365715;19;20010;-68
2023/05/30 08:53:59;;;;;;;4.22;2.97;;;20.20;1.00;;;;;;7365063;19;20123;-67
2023/05/30 08:56:32;;;;;;;4.53;3.00;;;20.20;1.00;;;;;;7387830;19;20074;-68
2023/05/30 08:59:08;;;;;;;9.82;3.47;;;19.80;1.00;;;;;;7364165;19;20022;-68
2023/05/30 09:01:41;;;;;;;9.02;3.78;;;19.70;1.00;;;;;;7362374;19;20137;-69
2023/05/30 09:04:12;;;;;;;9.75;3.70;;;20.10;1.00;;;;;;7364261;19;20014;-68
2023/05/30 09:06:43;;;;;;;5.90;3.60;;;20.60;1.00;;;;;;7366024;19;20010;-69
2023/05/30 09:09:14;;;;;;;5.72;3.30;;;20.50;1.00;;;;;;7365403;19;20011;-68
2023/05/30 09:11:45;;;;;;;8.98;4.13;;;20.60;1.00;;;;;;7366229;19;20014;-69
2023/05/30 09:14:15;;;;;;;10.88;3.30;;;20.40;1.00;;;;;;7388763;19;20048;-68
2023/05/30 09:16:48;;;;;;;8.30;3.42;;;20.90;1.00;;;;;;7363667;19;20019;-68
2023/05/30 09:19:18;;;;;;;9.27;3.30;;;20.80;1.00;;;;;;7363991;19;20533;-68
2023/05/30 09:21:48;;;;;;;5.40;3.05;;;21.00;1.00;;;;;;7363391;19;20015;-68
2023/05/30 09:24:18;;;;;;;10.25;3.47;;;21.00;1.00;;;;;;7364263;19;20018;-68
2023/05/30 09:27:02;;;;;;;11.85;3.35;;;20.80;1.00;;;;;;7364592;19;20010;-68
2023/05/30 09:29:44;;;;;;;5.88;2.88;;;20.70;1.00;;;;;;7387263;19;20475;-68
2023/05/30 09:32:16;;;;;;;7.93;3.65;;;20.90;1.00;;;;;;7364910;19;20015;-68
2023/05/30 09:34:56;;;;;;;10.70;3.40;;;21.00;1.00;;;;;;7363559;19;20010;-67
2023/05/30 09:37:27;;;;;;;8.45;2.90;;;20.80;1.00;;;;;;7364117;19;20045;-68
2023/05/30 09:40:09;;;;;;;7.10;3.40;;;21.00;1.00;;;;;;7361022;19;20027;-67
2023/05/30 09:42:44;;;;;;;4.75;3.00;;;21.20;1.00;;;;;;7363851;19;20011;-68
2023/05/30 09:45:14;;;;;;;;;;;21.40;1.00;;;;;;7364616;19;20011;-67
2023/05/30 09:47:50;;;;;;;7.10;3.13;;;21.30;1.00;;;;;;7367790;19;19923;-68
2023/05/30 09:50:22;;;;;;;7.47;2.85;;;21.30;1.00;;;;;;7383362;19;20097;-69
2023/05/30 09:52:56;;;;;;;5.65;3.00;;;21.50;1.00;;;;;;7363675;19;20014;-68
2023/05/30 09:55:27;;;;;;;9.60;2.97;;;21.10;1.00;;;;;;7362987;19;20235;-67
2023/05/30 09:57:58;;;;;;;8.65;3.00;;;21.00;1.00;;;;;;7365807;19;20133;-69
2023/05/30 10:00:29;;;;;;;7.55;3.40;;;21.50;1.00;;;;;;7362583;19;20095;-68
2023/05/30 10:03:01;;;;;;;5.78;3.20;;;21.50;1.00;;;;;;7364216;19;20011;-68
2023/05/30 10:05:32;;;;;;;7.13;2.88;;;21.80;1.00;;;;;;7384845;19;20038;-68
2023/05/30 10:08:02;;;;;;;10.73;3.10;;;21.10;1.00;;;;;;7362972;19;20049;-67
2023/05/30 10:10:32;;;;;;;10.65;3.20;;;21.10;1.00;;;;;;7361150;19;20036;-67
2023/05/30 10:13:03;;;;;;;9.02;3.28;;;21.50;1.00;;;;;;7363929;19;20010;-68
2023/05/30 10:15:33;;;;;;;8.15;2.95;;;21.50;1.00;;;;;;7362390;19;20014;-68
2023/05/30 10:18:09;;;;;;;7.13;3.15;;;21.20;1.00;;;;;;7362930;19;20014;-67
2023/05/30 10:20:45;;;;;;;7.20;2.83;;;21.50;1.00;;;;;;7360523;19;20022;-68
2023/05/30 10:23:15;;;;;;;5.85;2.97;;;21.40;1.00;;;;;;7383729;19;20014;-67
2023/05/30 10:25:52;;;;;;;6.55;2.90;;;21.90;1.00;;;;;;7361178;19;20014;-68
2023/05/30 10:28:28;;;;;;;5.18;3.03;;;22.10;1.00;;;;;;7360296;19;20022;-68
2023/05/30 10:30:59;;;;;;;4.93;2.63;;;22.30;1.00;;;;;;7361263;19;20756;-69
2023/05/30 10:33:39;;;;;;;7.77;3.23;;;22.30;1.00;;;;;;7362098;19;20474;-69
2023/05/30 10:36:26;;;;;;;7.00;3.10;;;22.30;1.00;;;;;;7362954;19;20243;-68
2023/05/30 10:39:18;;;;;;;8.98;3.00;;;22.20;1.00;;;;;;7362565;19;20022;-69
2023/05/30 10:41:54;;;;;;;7.28;2.63;;;22.20;1.00;;;;;;7362097;19;20014;-68
2023/05/30 10:44:37;;;;;;;6.78;2.92;;;22.50;1.00;;;;;;7386106;19;20459;-69
2023/05/30 10:47:25;;;;;;;5.13;3.10;;;22.40;1.00;;;;;;7361855;19;20014;-67
2023/05/30 10:50:00;;;;;;;7.47;2.85;;;22.80;1.00;;;;;;7360110;19;20010;-69
2023/05/30 10:52:34;;;;;;;7.55;2.50;;;22.40;1.00;;;;;;7361543;19;20753;-68
2023/05/30 10:55:10;;;;;;;8.07;3.33;;;22.40;1.00;;;;;;7361436;19;20027;-69
2023/05/30 10:57:43;;;;;;;7.18;2.97;;;22.60;1.00;;;;;;7363911;19;20014;-68
2023/05/30 11:00:20;;;;;;;5.03;2.95;;;22.80;1.00;;;;;;7360787;19;20087;-68
2023/05/30 11:02:54;;;;;;;4.93;3.25;;;22.50;1.00;;;;;;7362366;19;20017;-68
2023/05/30 11:05:30;;;;;;;6.50;3.10;;;22.60;1.00;;;;;;7382373;19;20078;-68
2023/05/30 11:08:02;;;;;;;5.10;2.50;;;23.30;1.00;;;;;;7361280;19;20014;-68
2023/05/30 11:10:35;;;;;;;5.00;3.08;;;22.90;1.00;;;;;;7359598;19;20311;-68
2023/05/30 11:13:14;;;;;;;6.88;2.78;;;23.10;1.00;;;;;;7362769;19;20035;-68
2023/05/30 11:15:47;;;;;;;6.55;2.97;;;22.50;1.00;;;;;;7361058;19;20015;-68
2023/05/30 11:18:18;;;;;;;6.18;3.20;;;22.50;1.00;;;;;;7360509;19;20018;-68
2023/05/30 11:20:56;;;;;;;5.97;3.05;;;22.80;1.00;;;;;;7358667;19;20018;-68
2023/05/30 11:23:29;;;;;;;7.72;2.92;;;22.70;1.00;;;;;;7380060;19;20043;-67
2023/05/30 11:26:01;;;;;;;8.95;3.08;;;23.00;1.00;;;;;;7360763;19;20014;-67
2023/05/30 11:28:36;;;;;;;5.63;2.90;;;23.10;1.00;;;;;;7360287;19;20019;-68
2023/05/30 11:31:19;;;;;;;8.60;3.13;;;23.20;1.00;;;;;;7359698;19;20010;-67
2023/05/30 11:33:51;;;;;;;12.73;3.03;;;23.30;1.00;;;;;;7360538;19;20387;-67
2023/05/30 11:36:25;;;;;;;8.07;3.08;;;22.80;1.00;;;;;;7360575;19;20655;-69
2023/05/30 11:38:55;;;;;;;7.10;2.72;;;22.70;1.00;;;;;;7363849;19;20008;-68
2023/05/30 11:41:26;;;;;;;14.80;3.08;;;22.90;1.00;;;;;;7389947;19;20048;-68
2023/05/30 11:43:56;;;;;;;7.88;2.90;;;23.10;1.00;;;;;;7364927;19;20032;-68
2023/05/30 11:46:26;;;;;;;6.95;2.75;;;23.00;1.00;;;;;;7368090;19;20381;-67
2023/05/30 11:48:59;;;;;;;4.75;2.70;;;22.80;1.00;;;;;;7368729;19;20101;-68
2023/05/30 11:51:32;;;;;;;7.75;2.83;;;22.90;1.00;;;;;;7368119;19;20474;-68
2023/05/30 11:54:02;;;;;;;5.22;3.03;;;22.90;1.00;;;;;;7367243;19;20122;-69
2023/05/30 11:56:32;;;;;;;6.88;2.90;;;23.00;1.00;;;;;;7390465;19;20011;-68
2023/05/30 11:59:02;;;;;;;4.90;2.63;;;22.70;1.00;;;;;;7371899;19;20014;-69
2023/05/30 12:01:32;;;;;;;7.03;3.03;;;22.40;1.00;;;;;;7373530;19;20010;-68
2023/05/30 12:04:02;;;;;;;17.40;3.30;;;22.40;1.00;;;;;;7374546;19;20015;-66
2023/05/30 12:06:35;;;;;;;7.25;2.70;;;22.10;1.00;;;;;;7369613;19;20558;-67
2023/05/30 12:09:07;;;;;;;6.25;2.80;;;22.00;1.00;;;;;;7367334;19;20070;-67
2023/05/30 12:11:37;;;;;;;5.00;2.50;;;22.50;1.00;;;;;;7368465;19;20753;-68
2023/05/30 12:14:07;;;;;;;12.43;3.08;;;22.40;1.00;;;;;;7390419;19;20018;-68
2023/05/30 12:16:37;;;;;;;8.20;2.80;;;22.80;1.00;;;;;;7366672;19;20040;-68
2023/05/30 12:19:07;;;;;;;10.00;3.53;;;23.10;1.00;;;;;;7366767;19;20021;-68
2023/05/30 12:21:42;;;;;;;10.20;2.95;;;23.30;1.00;;;;;;7366074;19;20093;-69
2023/05/30 12:24:13;;;;;;;11.00;2.70;;;23.20;1.00;;;;;;7364176;19;20014;-67
2023/05/30 12:26:50;;;;;;;5.05;2.75;;;23.00;1.00;;;;;;7366704;19;20043;-67
2023/05/30 12:29:20;;;;;;;10.00;3.13;;;23.10;1.00;;;;;;7389531;19;20018;-68
2023/05/30 12:31:50;;;;;;;6.13;2.90;;;23.40;1.00;;;;;;7365884;19;20018;-68
2023/05/30 12:34:20;;;;;;;6.95;2.80;;;22.60;1.00;;;;;;7366172;19;20011;-68
2023/05/30 12:36:57;;;;;;;6.05;2.35;;;22.60;1.00;;;;;;7369287;19;20356;-69
2023/05/30 12:39:27;;;;;;;6.38;2.63;;;22.70;1.00;;;;;;7366024;19;20022;-68
2023/05/30 12:41:57;;;;;;;7.63;3.00;;;23.30;1.00;;;;;;7367906;19;20082;-68
2023/05/30 12:44:27;;;;;;;12.15;3.00;;;22.80;1.00;;;;;;7384956;19;20089;-67
2023/05/30 12:47:03;;;;;;;10.27;2.80;;;22.40;1.00;;;;;;7365382;19;20027;-68
2023/05/30 12:49:33;;;;;;;9.05;2.95;;;22.40;1.00;;;;;;7365048;19;20013;-68
2023/05/30 12:52:06;;;;;;;6.45;2.60;;;23.00;1.00;;;;;;7363362;19;20015;-68
2023/05/30 12:54:37;;;;;;;8.02;3.30;;;23.00;1.00;;;;;;7365688;19;20034;-68
2023/05/30 12:57:08;;;;;;;8.10;2.72;;;23.10;1.00;;;;;;7367170;19;20854;-68
2023/05/30 12:59:38;;;;;;;4.65;2.40;;;23.50;1.00;;;;;;7362678;19;20014;-68
2023/05/30 13:02:10;;;;;;;8.13;3.05;;;23.60;1.00;;;;;;7386399;19;20018;-68
2023/05/30 13:04:42;;;;;;;7.40;2.83;;;23.50;1.00;;;;;;7364400;19;20022;-68
2023/05/30 13:07:16;;;;;;;7.40;3.00;;;23.60;1.00;;;;;;7368207;19;20101;-67
2023/05/30 13:09:46;;;;;;;4.45;2.95;;;23.50;1.00;;;;;;7363108;19;20482;-67
2023/05/30 13:12:17;;;;;;;6.50;2.80;;;23.60;1.00;;;;;;7364095;19;20025;-68
2023/05/30 13:14:48;;;;;;;8.15;2.70;;;22.70;1.00;;;;;;7367981;19;20044;-68
2023/05/30 13:17:18;;;;;;;6.07;2.80;;;23.20;1.00;;;;;;7386357;19;20018;-69
2023/05/30 13:19:49;;;;;;;5.63;2.78;;;23.30;1.00;;;;;;7363132;19;20029;-68
2023/05/30 13:22:21;;;;;;;4.97;2.50;;;23.90;1.00;;;;;;7364652;19;20379;-70